createdAt,value
2023-05-19T00:01:34.322Z,0.00
2023-05-19T00:06:34.191Z,0.00
2023-05-19T00:11:34.076Z,0.00
2023-05-19T00:16:34.007Z,0.00
2023-05-19T00:21:33.953Z,0.00
2023-05-19T00:26:34.245Z,0.00
2023-05-19T00:31:36.817Z,0.00
2023-05-19T00:36:33.731Z,0.00
2023-05-19T00:41:33.729Z,0.00
2023-05-19T00:46:33.615Z,0.00
2023-05-19T00:51:33.554Z,0.00
2023-05-19T00:56:33.446Z,0.00
2023-05-19T01:01:33.515Z,0.00
2023-05-19T01:06:33.334Z,0.00
2023-05-19T01:11:33.296Z,0.00
2023-05-19T01:16:33.282Z,0.00
2023-05-19T01:21:33.157Z,0.00
2023-05-19T01:26:33.069Z,0.00
2023-05-19T01:31:36.090Z,0.00
2023-05-19T01:36:32.919Z,0.00
2023-05-19T01:41:32.911Z,0.00
2023-05-19T01:46:33.062Z,0.00
2023-05-19T01:51:32.891Z,0.00
2023-05-19T01:56:32.695Z,0.00
2023-05-19T02:01:32.650Z,0.00
2023-05-19T02:06:32.521Z,0.00
2023-05-19T02:11:32.485Z,0.00
2023-05-19T02:16:32.395Z,0.00
2023-05-19T02:21:32.350Z,0.00
2023-05-19T02:26:32.242Z,0.00
2023-05-19T02:31:35.247Z,0.00
2023-05-19T02:36:32.122Z,0.00
2023-05-19T02:41:32.085Z,4.00
2023-05-19T02:46:32.006Z,4.00
2023-05-19T02:51:32.002Z,4.00
2023-05-19T02:56:31.894Z,12.00
2023-05-19T03:01:31.930Z,28.00
2023-05-19T03:06:31.750Z,52.00
2023-05-19T03:11:31.722Z,88.00
2023-05-19T03:16:31.673Z,140.00
2023-05-19T03:21:31.555Z,212.00
2023-05-19T03:26:31.484Z,324.00
2023-05-19T03:31:34.407Z,464.00
2023-05-19T03:36:31.327Z,640.00
2023-05-19T03:41:31.339Z,836.00
2023-05-19T03:46:31.193Z,1032.00
2023-05-19T03:51:31.196Z,1296.00
2023-05-19T03:56:31.101Z,1588.00
2023-05-19T04:01:31.073Z,1648.00
2023-05-19T04:06:30.967Z,1980.00
2023-05-19T04:11:30.991Z,2176.00
2023-05-19T04:16:30.954Z,2392.00
2023-05-19T04:21:30.792Z,2576.00
2023-05-19T04:26:30.693Z,2720.00
2023-05-19T04:31:33.715Z,2772.00
2023-05-19T04:36:30.605Z,2724.00
2023-05-19T04:41:30.570Z,2844.00
2023-05-19T04:46:30.490Z,3036.00
2023-05-19T04:51:30.670Z,3208.00
2023-05-19T04:56:30.371Z,3336.00
2023-05-19T05:01:30.306Z,3492.00
2023-05-19T05:06:30.157Z,3756.00
2023-05-19T05:11:30.127Z,4064.00
2023-05-19T05:16:30.117Z,4676.00
2023-05-19T05:21:30.245Z,5252.00
2023-05-19T05:26:29.917Z,5828.00
2023-05-19T05:31:32.874Z,6468.00
2023-05-19T05:36:29.779Z,7116.00
2023-05-19T05:41:29.741Z,8464.00
2023-05-19T05:46:29.747Z,9648.00
2023-05-19T05:51:29.645Z,11268.00
2023-05-19T05:56:29.556Z,12452.00
2023-05-19T06:01:29.803Z,13068.00
2023-05-19T06:06:29.415Z,16928.00
2023-05-19T06:11:29.365Z,18208.00
2023-05-19T06:16:29.482Z,16288.00
2023-05-19T06:21:29.324Z,16384.00
2023-05-19T06:26:29.203Z,16768.00
2023-05-19T06:31:32.300Z,16896.00
2023-05-19T06:36:28.997Z,18144.00
2023-05-19T06:45:24.831Z,47168.00
2023-05-19T06:50:32.776Z,46496.00
2023-05-19T06:55:24.645Z,39968.00
2023-05-19T07:00:24.642Z,40384.00
2023-05-19T07:05:24.548Z,44192.00
2023-05-19T07:10:24.595Z,42240.00
2023-05-19T07:15:24.539Z,49536.00
2023-05-19T07:20:24.385Z,45472.00
2023-05-19T07:25:24.292Z,36000.00
2023-05-19T07:30:24.319Z,39552.00
2023-05-19T07:35:27.429Z,41344.00
2023-05-19T07:40:24.104Z,32224.00
2023-05-19T07:45:24.072Z,41824.00
2023-05-19T07:50:24.083Z,39488.00
2023-05-19T07:55:23.962Z,42240.00
2023-05-19T08:00:23.831Z,40416.00
2023-05-19T08:05:23.836Z,41952.00
2023-05-19T08:10:23.799Z,43808.00
2023-05-19T08:15:23.679Z,29280.00
2023-05-19T08:20:23.612Z,22912.00
2023-05-19T08:25:23.579Z,12300.00
2023-05-19T08:30:23.483Z,16224.00
2023-05-19T08:35:26.459Z,14320.00
2023-05-19T08:40:23.401Z,15616.00
2023-05-19T08:45:23.353Z,14728.00
2023-05-19T08:50:23.327Z,14788.00
2023-05-19T08:55:23.252Z,16960.00
2023-05-19T09:00:23.269Z,19520.00
2023-05-19T09:05:23.156Z,18592.00
2023-05-19T09:10:22.941Z,18016.00
2023-05-19T09:15:22.941Z,17280.00
2023-05-19T09:20:22.874Z,16896.00
2023-05-19T09:25:22.908Z,15124.00
2023-05-19T09:30:22.733Z,14128.00
2023-05-19T09:35:25.738Z,14776.00
2023-05-19T09:40:22.577Z,15424.00
2023-05-19T09:45:22.699Z,17312.00
2023-05-19T09:50:22.412Z,20768.00
2023-05-19T09:55:22.372Z,17984.00
2023-05-19T10:00:22.325Z,16256.00
2023-05-19T10:05:22.301Z,14336.00
2023-05-19T10:10:22.160Z,16512.00
2023-05-19T10:15:23.338Z,19232.00
2023-05-19T10:20:22.061Z,19072.00
2023-05-19T10:25:22.055Z,18944.00
2023-05-19T10:30:21.917Z,19040.00
2023-05-19T10:35:24.965Z,18976.00
2023-05-19T10:40:21.849Z,20992.00
2023-05-19T10:45:21.721Z,17024.00
2023-05-19T10:50:21.655Z,19072.00
2023-05-19T10:55:21.660Z,16672.00
2023-05-19T11:00:21.515Z,19040.00
2023-05-19T11:05:21.461Z,17792.00
2023-05-19T11:15:21.420Z,13112.00
2023-05-19T11:20:21.238Z,14440.00
2023-05-19T11:25:21.269Z,15904.00
2023-05-19T11:30:21.148Z,14844.00
2023-05-19T11:35:24.062Z,10300.00
2023-05-19T11:40:20.952Z,13932.00
2023-05-19T11:45:20.923Z,16448.00
2023-05-19T11:50:20.850Z,17824.00
2023-05-19T11:55:20.819Z,16160.00
2023-05-19T12:00:20.700Z,14764.00
2023-05-19T12:05:20.879Z,14432.00
2023-05-19T12:10:20.578Z,14600.00
2023-05-19T12:15:20.548Z,13184.00
2023-05-19T12:20:20.445Z,13812.00
2023-05-19T12:25:20.439Z,12292.00
2023-05-19T12:30:20.317Z,14448.00
2023-05-19T12:35:23.308Z,13948.00
2023-05-19T12:40:20.234Z,11200.00
2023-05-19T12:45:20.201Z,10064.00
2023-05-19T12:50:20.128Z,10320.00
2023-05-19T12:55:20.074Z,8536.00
2023-05-19T13:00:20.037Z,9292.00
2023-05-19T13:05:19.961Z,9228.00
2023-05-19T13:10:19.842Z,8344.00
2023-05-19T13:15:19.853Z,7812.00
2023-05-19T13:20:19.655Z,9992.00
2023-05-19T13:25:19.715Z,11292.00
2023-05-19T13:30:19.513Z,10252.00
2023-05-19T13:35:22.568Z,10128.00
2023-05-19T13:40:19.417Z,10720.00
2023-05-19T13:45:19.364Z,10752.00
2023-05-19T13:50:19.266Z,10160.00
2023-05-19T13:55:19.234Z,9844.00
2023-05-19T14:00:19.166Z,9436.00
2023-05-19T14:05:19.135Z,10008.00
2023-05-19T14:10:19.013Z,8964.00
2023-05-19T14:15:18.979Z,9644.00
2023-05-19T14:20:18.925Z,12136.00
2023-05-19T14:25:18.947Z,12196.00
2023-05-19T14:30:18.742Z,10576.00
2023-05-19T14:35:21.732Z,11396.00
2023-05-19T14:40:18.632Z,14424.00
2023-05-19T14:45:18.597Z,14592.00
2023-05-19T14:50:18.591Z,20480.00
2023-05-19T14:55:18.535Z,18592.00
2023-05-19T15:00:18.415Z,19040.00
2023-05-19T15:05:18.296Z,13952.00
2023-05-19T15:10:18.204Z,12784.00
2023-05-19T15:15:18.197Z,17568.00
2023-05-19T15:20:18.117Z,10252.00
2023-05-19T15:25:18.093Z,8844.00
2023-05-19T15:30:17.950Z,8904.00
2023-05-19T15:35:20.985Z,10884.00
2023-05-19T15:40:17.807Z,11204.00
2023-05-19T15:45:17.849Z,10556.00
2023-05-19T15:50:17.780Z,10708.00
2023-05-19T15:55:17.685Z,9648.00
2023-05-19T16:00:17.587Z,9012.00
2023-05-19T16:05:17.587Z,9340.00
2023-05-19T16:10:17.422Z,8440.00
2023-05-19T16:15:17.413Z,8584.00
2023-05-19T16:20:17.315Z,8052.00
2023-05-19T16:25:17.293Z,8388.00
2023-05-19T16:30:17.172Z,7288.00
2023-05-19T16:35:20.281Z,7360.00
2023-05-19T16:40:17.118Z,7040.00
2023-05-19T16:45:17.131Z,6412.00
2023-05-19T16:50:17.048Z,5840.00
2023-05-19T16:55:17.020Z,4976.00
2023-05-19T17:00:16.905Z,4432.00
2023-05-19T17:05:16.905Z,4388.00
2023-05-19T17:10:16.738Z,4100.00
2023-05-19T17:15:16.838Z,3532.00
2023-05-19T17:20:16.633Z,3476.00
2023-05-19T17:25:16.558Z,3476.00
2023-05-19T17:30:16.448Z,3604.00
2023-05-19T17:35:19.413Z,3428.00
2023-05-19T17:40:16.274Z,2744.00
2023-05-19T17:45:16.242Z,2692.00
2023-05-19T17:50:16.179Z,2784.00
2023-05-19T17:55:16.148Z,2572.00
2023-05-19T18:00:16.038Z,2100.00
2023-05-19T18:05:16.054Z,1676.00
2023-05-19T18:10:15.874Z,1440.00
2023-05-19T18:15:15.825Z,1288.00
2023-05-19T18:20:15.741Z,1316.00
2023-05-19T18:25:15.715Z,1232.00
2023-05-19T18:30:15.669Z,1080.00
2023-05-19T18:35:18.597Z,672.00
2023-05-19T18:40:15.515Z,584.00
2023-05-19T18:45:15.465Z,400.00
2023-05-19T18:50:15.449Z,300.00
2023-05-19T18:55:15.353Z,188.00
2023-05-19T19:00:15.253Z,112.00
2023-05-19T19:05:15.330Z,88.00
2023-05-19T19:10:15.143Z,48.00
2023-05-19T19:15:15.064Z,32.00
2023-05-19T19:20:15.004Z,20.00
2023-05-19T19:25:14.983Z,12.00
2023-05-19T19:30:14.870Z,4.00
2023-05-19T19:35:17.796Z,0.00
2023-05-19T19:40:14.697Z,0.00
2023-05-19T19:45:15.814Z,0.00
2023-05-19T19:50:14.549Z,0.00
2023-05-19T19:55:14.532Z,0.00
2023-05-19T20:00:14.398Z,0.00
2023-05-19T20:05:14.485Z,0.00
2023-05-19T20:10:14.249Z,0.00
2023-05-19T20:15:14.304Z,0.00
2023-05-19T20:20:14.198Z,0.00
2023-05-19T20:25:14.110Z,0.00
2023-05-19T20:30:14.041Z,0.00
2023-05-19T20:35:16.978Z,0.00
2023-05-19T20:40:13.897Z,0.00
2023-05-19T20:45:13.840Z,0.00
2023-05-19T20:50:13.768Z,0.00
2023-05-19T20:55:13.720Z,0.00
2023-05-19T21:00:13.626Z,0.00
2023-05-19T21:05:13.643Z,0.00
2023-05-19T21:10:13.488Z,0.00
2023-05-19T21:15:13.710Z,0.00
2023-05-19T21:20:13.374Z,0.00
2023-05-19T21:25:13.340Z,0.00
2023-05-19T21:30:13.228Z,0.00
2023-05-19T21:35:16.277Z,0.00
2023-05-19T21:40:13.090Z,0.00
2023-05-19T21:45:13.052Z,0.00
2023-05-19T21:50:12.986Z,0.00
2023-05-19T21:55:12.943Z,0.00
2023-05-19T22:00:12.859Z,0.00
2023-05-19T22:05:12.828Z,0.00
2023-05-19T22:10:12.713Z,0.00
2023-05-19T22:15:12.678Z,0.00
2023-05-19T22:20:12.564Z,0.00
2023-05-19T22:25:12.620Z,0.00
2023-05-19T22:30:12.435Z,0.00
2023-05-19T22:35:15.377Z,0.00
2023-05-19T22:40:12.287Z,0.00
2023-05-19T22:45:12.217Z,0.00
2023-05-19T22:50:12.197Z,0.00
2023-05-19T22:55:12.118Z,0.00
2023-05-19T23:00:12.007Z,0.00
2023-05-19T23:05:11.977Z,0.00
2023-05-19T23:10:11.885Z,0.00
2023-05-19T23:15:11.864Z,0.00
2023-05-19T23:20:11.742Z,0.00
2023-05-19T23:25:11.710Z,0.00
2023-05-19T23:30:11.618Z,0.00
2023-05-19T23:35:14.741Z,0.00
2023-05-19T23:40:11.450Z,0.00
2023-05-19T23:45:11.409Z,0.00
2023-05-19T23:50:11.297Z,0.00
2023-05-19T23:55:11.256Z,0.00
